Terminal Aerodrome Forecast
Issued by NWS Greer, SC

Home | Current Version | Previous Version | Text Only | Print | Product List | Glossary On
Versions: 1 2 3 4 5 6 7 8 9 10 11 12 13 14 15 16 17 18 19 20 21 22 23 24 25 26 27 28 29 30 31 32 33 34 35 36 37 38 39 40 41
000
FTUS42 KGSP 272320
TAFCLT
TAF
KCLT 272320Z 2800/2824 36003KT P6SM BKN060
     FM280200 04006KT P6SM BKN060
     FM280500 08006KT P6SM BKN060
     FM280900 13003KT 6SM BR FEW030 BKN060
     FM281300 13006KT P6SM BKN060 PROB30 2820/2824 4SM TSRA
      BKN040CB=

USA.gov is the U.S. government's official web portal to all federal, state and local government web resources and services.